createdAt,value
2023-05-05T00:00:25.222Z,46.89
2023-05-05T00:01:25.123Z,47.05
2023-05-05T00:02:25.119Z,47.70
2023-05-05T00:03:25.162Z,47.37
2023-05-05T00:04:25.074Z,50.11
2023-05-05T00:05:25.084Z,48.66
2023-05-05T00:06:25.051Z,48.66
2023-05-05T00:07:25.083Z,49.47
2023-05-05T00:08:25.089Z,48.82
2023-05-05T00:09:25.102Z,50.27
2023-05-05T00:10:25.042Z,49.47
2023-05-05T00:11:25.040Z,48.66
2023-05-05T00:12:25.008Z,48.66
2023-05-05T00:13:25.000Z,49.79
2023-05-05T00:14:25.078Z,48.50
2023-05-05T00:15:24.971Z,48.34
2023-05-05T00:16:25.034Z,47.70
2023-05-05T00:17:24.968Z,49.47
2023-05-05T00:18:24.924Z,48.66
2023-05-05T00:19:24.926Z,47.05
2023-05-05T00:20:24.855Z,46.73
2023-05-05T00:21:24.881Z,47.05
2023-05-05T00:22:24.866Z,47.05
2023-05-05T00:23:24.833Z,49.79
2023-05-05T00:24:24.974Z,49.15
2023-05-05T00:25:24.977Z,49.31
2023-05-05T00:26:24.837Z,48.18
2023-05-05T00:27:24.795Z,48.98
2023-05-05T00:28:24.836Z,48.34
2023-05-05T00:29:24.802Z,48.18
2023-05-05T00:30:24.969Z,48.66
2023-05-05T00:33:32.673Z,46.25
2023-05-05T00:34:57.745Z,47.70
2023-05-05T00:35:32.670Z,48.34
2023-05-05T00:36:32.726Z,49.15
2023-05-05T00:37:32.740Z,51.08
2023-05-05T00:38:32.836Z,47.86
2023-05-05T00:39:32.730Z,47.37
2023-05-05T00:40:32.750Z,47.86
2023-05-05T00:41:32.724Z,53.33
2023-05-05T00:42:32.686Z,48.66
2023-05-05T00:43:32.660Z,52.05
2023-05-05T00:44:32.692Z,48.50
2023-05-05T00:45:32.714Z,48.02
2023-05-05T00:46:32.698Z,48.66
2023-05-05T00:47:32.762Z,50.27
2023-05-05T00:48:32.641Z,47.53
2023-05-05T00:49:32.723Z,48.34
2023-05-05T00:50:32.638Z,48.18
2023-05-05T00:51:32.637Z,47.37
2023-05-05T00:52:32.633Z,46.57
2023-05-05T00:53:32.630Z,47.05
2023-05-05T00:54:32.613Z,47.37
2023-05-05T00:55:33.592Z,47.70
2023-05-05T00:56:32.627Z,49.15
2023-05-05T00:57:32.518Z,48.02
2023-05-05T00:58:32.455Z,50.43
2023-05-05T00:59:32.503Z,50.92
2023-05-05T01:00:32.472Z,48.98
2023-05-05T01:01:32.832Z,48.50
2023-05-05T01:02:32.741Z,48.02
2023-05-05T01:03:32.558Z,47.70
2023-05-05T01:04:32.610Z,48.50
2023-05-05T01:05:32.621Z,52.53
2023-05-05T01:06:32.545Z,48.34
2023-05-05T01:07:32.566Z,49.15
2023-05-05T01:08:32.592Z,52.21
2023-05-05T01:09:32.567Z,48.66
2023-05-05T01:10:32.566Z,48.66
2023-05-05T01:11:32.561Z,48.82
2023-05-05T01:12:32.612Z,48.34
2023-05-05T01:13:32.523Z,49.15
2023-05-05T01:14:32.568Z,48.18
2023-05-05T01:15:32.487Z,48.18
2023-05-05T01:16:32.450Z,48.66
2023-05-05T01:17:32.471Z,48.50
2023-05-05T01:18:32.399Z,49.79
2023-05-05T01:19:32.608Z,48.82
2023-05-05T01:20:32.445Z,49.95
2023-05-05T01:21:32.435Z,51.56
2023-05-05T01:22:32.500Z,47.86
2023-05-05T01:23:32.393Z,48.34
2023-05-05T01:24:32.379Z,48.82
2023-05-05T01:25:32.285Z,47.70
2023-05-05T01:26:32.298Z,46.89
2023-05-05T01:27:32.360Z,48.66
2023-05-05T01:28:32.288Z,49.47
2023-05-05T01:29:32.288Z,48.98
2023-05-05T01:30:32.887Z,47.86
2023-05-05T01:31:32.349Z,49.31
2023-05-05T01:32:32.333Z,49.15
2023-05-05T01:33:32.391Z,48.66
2023-05-05T01:34:32.321Z,49.63
2023-05-05T01:35:32.407Z,49.63
2023-05-05T01:36:32.343Z,50.11
2023-05-05T01:37:32.308Z,55.27
2023-05-05T01:38:32.327Z,51.56
2023-05-05T01:39:32.390Z,50.92
2023-05-05T01:40:32.259Z,50.92
2023-05-05T01:41:32.294Z,48.50
2023-05-05T01:42:32.271Z,49.15
2023-05-05T01:43:32.273Z,54.46
2023-05-05T01:44:32.279Z,53.17
2023-05-05T01:45:32.355Z,51.08
2023-05-05T01:46:32.248Z,50.11
2023-05-05T01:47:32.154Z,51.40
2023-05-05T01:48:32.225Z,49.31
2023-05-05T01:49:32.149Z,48.34
2023-05-05T01:50:32.268Z,49.15
2023-05-05T01:51:32.158Z,50.11
2023-05-05T01:52:32.176Z,51.08
2023-05-05T01:53:32.133Z,50.60
2023-05-05T01:54:32.126Z,49.31
2023-05-05T01:55:32.123Z,53.50
2023-05-05T01:56:32.126Z,49.95
2023-05-05T01:57:32.235Z,49.47
2023-05-05T01:58:32.234Z,49.95
2023-05-05T01:59:32.181Z,49.47
2023-05-05T02:00:32.227Z,54.46
2023-05-05T02:01:32.151Z,54.46
2023-05-05T02:02:32.273Z,50.92
2023-05-05T02:03:32.231Z,49.15
2023-05-05T02:04:32.221Z,49.31
2023-05-05T02:05:32.097Z,50.43
2023-05-05T02:06:32.114Z,48.82
2023-05-05T02:07:32.090Z,49.47
2023-05-05T02:08:32.144Z,49.79
2023-05-05T02:09:32.075Z,54.79
2023-05-05T02:10:32.062Z,49.79
2023-05-05T02:11:31.994Z,54.46
2023-05-05T02:12:32.112Z,50.76
2023-05-05T02:13:31.997Z,51.24
2023-05-05T02:14:31.975Z,56.07
2023-05-05T02:15:31.960Z,50.27
2023-05-05T02:16:31.958Z,53.98
2023-05-05T02:17:31.981Z,50.27
2023-05-05T02:18:31.939Z,47.70
2023-05-05T02:19:31.999Z,47.86
2023-05-05T02:20:32.009Z,48.02
2023-05-05T02:21:31.929Z,47.86
2023-05-05T02:22:31.964Z,47.37
2023-05-05T02:23:31.922Z,47.37
2023-05-05T02:24:31.922Z,49.15
2023-05-05T02:25:32.019Z,52.21
2023-05-05T02:26:31.971Z,53.17
2023-05-05T02:27:32.056Z,48.98
2023-05-05T02:28:31.971Z,49.47
2023-05-05T02:29:31.954Z,48.50
2023-05-05T02:30:32.522Z,49.47
2023-05-05T02:31:32.055Z,51.72
2023-05-05T02:32:43.152Z,49.47
2023-05-05T02:33:31.813Z,52.05
2023-05-05T02:34:31.946Z,53.17
2023-05-05T02:35:31.977Z,53.98
2023-05-05T02:36:31.946Z,51.56
2023-05-05T02:37:31.865Z,51.88
2023-05-05T02:38:31.902Z,53.01
2023-05-05T02:39:31.892Z,52.21
2023-05-05T02:40:31.855Z,53.50
2023-05-05T02:41:31.908Z,53.01
2023-05-05T02:42:31.927Z,50.27
2023-05-05T02:43:31.851Z,49.31
2023-05-05T02:44:31.909Z,48.18
2023-05-05T02:45:31.825Z,49.47
2023-05-05T02:46:31.910Z,49.47
2023-05-05T02:47:31.903Z,50.27
2023-05-05T02:48:31.882Z,51.88
2023-05-05T02:49:31.843Z,53.66
2023-05-05T02:50:31.898Z,52.85
2023-05-05T02:51:31.868Z,51.72
2023-05-05T02:52:31.860Z,52.85
2023-05-05T02:53:31.701Z,51.24
2023-05-05T02:54:31.760Z,49.95
2023-05-05T02:55:31.764Z,50.27
2023-05-05T02:57:12.414Z,49.63
2023-05-05T02:57:32.797Z,53.01
2023-05-05T02:58:31.806Z,53.33
2023-05-05T02:59:31.946Z,50.11
2023-05-05T03:00:31.739Z,50.43
2023-05-05T03:01:31.736Z,52.21
2023-05-05T03:02:31.792Z,52.21
2023-05-05T03:03:31.786Z,54.14
2023-05-05T03:04:31.610Z,54.79
2023-05-05T03:05:31.731Z,55.11
2023-05-05T03:06:33.050Z,56.07
2023-05-05T03:07:31.781Z,55.91
2023-05-05T03:08:31.676Z,54.46
2023-05-05T03:09:31.733Z,55.59
2023-05-05T03:10:31.684Z,53.17
2023-05-05T03:11:31.586Z,54.46
2023-05-05T03:13:02.125Z,56.07
2023-05-05T03:13:32.598Z,53.66
2023-05-05T03:14:33.372Z,51.88
2023-05-05T03:15:32.706Z,53.01
2023-05-05T03:16:31.774Z,55.27
2023-05-05T03:17:31.634Z,55.91
2023-05-05T03:18:31.593Z,57.04
2023-05-05T03:19:31.552Z,55.91
2023-05-05T03:20:31.494Z,53.66
2023-05-05T03:21:31.507Z,56.07
2023-05-05T03:22:31.524Z,57.52
2023-05-05T03:23:31.504Z,56.72
2023-05-05T03:24:31.526Z,56.72
2023-05-05T03:25:31.486Z,58.01
2023-05-05T03:26:31.439Z,57.20
2023-05-05T03:27:31.486Z,58.33
2023-05-05T03:28:31.482Z,58.81
2023-05-05T03:29:31.495Z,57.52
2023-05-05T03:30:31.477Z,57.36
2023-05-05T03:31:31.568Z,57.04
2023-05-05T03:32:31.620Z,59.46
2023-05-05T03:33:31.535Z,57.04
2023-05-05T03:34:31.482Z,59.94
2023-05-05T03:35:31.743Z,59.14
2023-05-05T03:36:31.464Z,58.49
2023-05-05T03:37:31.502Z,59.78
2023-05-05T03:38:31.497Z,59.30
2023-05-05T03:39:31.484Z,57.85
2023-05-05T03:40:42.934Z,58.17
2023-05-05T03:41:33.413Z,56.40
2023-05-05T03:42:32.440Z,58.33
2023-05-05T03:43:31.436Z,60.42
2023-05-05T03:44:31.443Z,59.14
2023-05-05T03:45:31.469Z,58.97
2023-05-05T03:46:31.481Z,61.23
2023-05-05T03:47:31.456Z,58.65
2023-05-05T03:48:31.365Z,56.72
2023-05-05T03:49:31.479Z,57.69
2023-05-05T03:50:31.436Z,56.40
2023-05-05T03:51:31.404Z,57.69
2023-05-05T03:52:31.417Z,56.40
2023-05-05T03:53:31.385Z,57.20
2023-05-05T03:54:31.344Z,58.01
2023-05-05T03:55:31.349Z,58.33
2023-05-05T03:56:31.345Z,57.20
2023-05-05T03:57:31.294Z,59.46
2023-05-05T03:58:31.235Z,57.52
2023-05-05T03:59:31.357Z,57.52
2023-05-05T04:00:31.376Z,59.14
2023-05-05T04:01:31.355Z,59.14
2023-05-05T04:02:31.430Z,56.40
2023-05-05T04:03:31.572Z,58.97
2023-05-05T04:04:31.367Z,58.17
2023-05-05T04:05:31.233Z,57.36
2023-05-05T04:06:31.299Z,56.24
2023-05-05T04:07:31.227Z,57.04
2023-05-05T04:08:31.358Z,58.65
2023-05-05T04:09:31.229Z,60.26
2023-05-05T04:10:31.263Z,59.62
2023-05-05T04:11:31.116Z,59.46
2023-05-05T04:13:03.220Z,57.85
2023-05-05T04:13:31.283Z,58.01
2023-05-05T04:14:31.272Z,59.46
2023-05-05T04:15:31.229Z,58.65
2023-05-05T04:16:31.300Z,56.56
2023-05-05T04:17:31.236Z,57.36
2023-05-05T04:18:31.205Z,56.07
2023-05-05T04:19:31.206Z,57.20
2023-05-05T04:20:40.276Z,57.52
2023-05-05T04:21:31.115Z,58.17
2023-05-05T04:22:52.796Z,56.24
2023-05-05T04:23:31.059Z,54.46
2023-05-05T04:24:31.081Z,55.27
2023-05-05T04:25:31.080Z,57.04
2023-05-05T04:26:31.034Z,58.49
2023-05-05T04:27:31.070Z,57.20
2023-05-05T04:28:31.037Z,59.46
2023-05-05T04:29:31.028Z,56.07
2023-05-05T04:30:31.035Z,58.81
2023-05-05T04:31:31.029Z,57.85
2023-05-05T04:32:30.971Z,56.24
2023-05-05T04:33:30.982Z,55.91
2023-05-05T04:34:30.953Z,57.20
2023-05-05T04:35:31.011Z,58.01
2023-05-05T04:36:31.035Z,57.85
2023-05-05T04:37:31.003Z,56.40
2023-05-05T04:38:31.009Z,58.33
2023-05-05T04:39:30.961Z,57.20
2023-05-05T04:40:30.958Z,56.56
2023-05-05T04:41:31.208Z,59.14
2023-05-05T04:42:30.963Z,56.56
2023-05-05T04:43:30.967Z,58.17
2023-05-05T04:44:30.915Z,57.36
2023-05-05T04:45:30.916Z,57.20
2023-05-05T04:46:31.005Z,55.27
2023-05-05T04:47:30.882Z,55.91
2023-05-05T04:48:30.929Z,57.36
2023-05-05T04:49:30.947Z,58.65
2023-05-05T04:50:30.914Z,58.33
2023-05-05T04:51:30.877Z,59.46
2023-05-05T04:52:52.656Z,58.33
2023-05-05T04:53:31.844Z,63.16
2023-05-05T04:54:30.842Z,60.26
2023-05-05T04:55:30.840Z,60.26
2023-05-05T04:56:45.278Z,58.81
2023-05-05T04:57:31.859Z,59.30
2023-05-05T04:58:30.835Z,57.36
2023-05-05T04:59:30.776Z,57.36
2023-05-05T05:00:30.808Z,62.36
2023-05-05T05:01:30.800Z,57.69
2023-05-05T05:02:30.816Z,55.75
2023-05-05T05:03:30.877Z,56.07
2023-05-05T05:04:30.739Z,58.01
2023-05-05T05:05:30.776Z,57.36
2023-05-05T05:06:30.762Z,58.97
2023-05-05T05:07:30.694Z,55.59
2023-05-05T05:08:30.755Z,53.82
2023-05-05T05:09:30.735Z,54.14
2023-05-05T05:10:31.720Z,55.11
2023-05-05T05:11:30.660Z,54.62
2023-05-05T05:12:30.738Z,53.98
2023-05-05T05:13:35.622Z,54.95
2023-05-05T05:14:30.742Z,56.56
2023-05-05T05:15:30.681Z,57.69
2023-05-05T05:16:30.755Z,55.75
2023-05-05T05:17:30.705Z,54.46
2023-05-05T05:18:30.679Z,56.56
2023-05-05T05:19:30.753Z,57.69
2023-05-05T05:20:30.655Z,54.14
2023-05-05T05:21:30.591Z,56.40
2023-05-05T05:22:36.440Z,56.24
2023-05-05T05:23:30.596Z,57.20
2023-05-05T05:24:30.650Z,54.46
2023-05-05T05:25:30.684Z,54.46
2023-05-05T05:26:30.643Z,54.95
2023-05-05T05:27:30.727Z,54.46
2023-05-05T05:28:30.771Z,54.46
2023-05-05T05:29:30.696Z,57.04
2023-05-05T05:30:39.936Z,54.62
2023-05-05T05:31:30.781Z,56.88
2023-05-05T05:32:30.743Z,57.04
2023-05-05T05:33:30.676Z,58.33
2023-05-05T05:34:30.652Z,57.04
2023-05-05T05:35:30.729Z,54.46
2023-05-05T05:36:30.634Z,56.72
2023-05-05T05:37:30.601Z,56.24
2023-05-05T05:38:30.600Z,56.56
2023-05-05T05:39:30.611Z,56.72
2023-05-05T05:40:30.629Z,55.59
2023-05-05T05:41:30.951Z,56.40
2023-05-05T05:42:30.554Z,57.04
2023-05-05T05:43:30.650Z,58.01
2023-05-05T05:44:30.568Z,57.52
2023-05-05T05:45:30.524Z,58.49
2023-05-05T05:46:30.624Z,57.52
2023-05-05T05:47:30.737Z,56.88
2023-05-05T05:48:30.681Z,57.04
2023-05-05T05:49:30.680Z,57.69
2023-05-05T05:50:30.596Z,57.20
2023-05-05T05:51:30.525Z,57.04
2023-05-05T05:52:30.601Z,54.95
2023-05-05T05:53:30.516Z,56.24
2023-05-05T05:54:30.561Z,57.52
2023-05-05T05:55:30.533Z,56.40
2023-05-05T05:56:30.563Z,53.17
2023-05-05T05:57:30.488Z,53.50
2023-05-05T05:58:30.548Z,54.79
2023-05-05T05:59:30.499Z,52.85
2023-05-05T06:00:30.478Z,53.01
2023-05-05T06:01:30.423Z,55.11
2023-05-05T06:02:30.402Z,54.30
2023-05-05T06:03:30.558Z,53.82
2023-05-05T06:04:30.405Z,56.24
2023-05-05T06:05:30.318Z,54.46
2023-05-05T06:06:30.384Z,54.62
2023-05-05T06:07:30.402Z,57.04
2023-05-05T06:08:30.441Z,53.98
2023-05-05T06:09:30.507Z,54.30
2023-05-05T06:10:30.542Z,55.59
2023-05-05T06:11:30.276Z,56.56
2023-05-05T06:12:30.389Z,56.24
2023-05-05T06:13:30.474Z,51.72
2023-05-05T06:14:30.386Z,53.33
2023-05-05T06:15:30.307Z,55.75
2023-05-05T06:16:30.386Z,55.11
2023-05-05T06:17:30.321Z,53.01
2023-05-05T06:18:30.268Z,51.88
2023-05-05T06:19:30.324Z,55.91
2023-05-05T06:20:30.333Z,54.95
2023-05-05T06:21:30.305Z,54.95
2023-05-05T06:22:30.284Z,54.95
2023-05-05T06:23:30.295Z,53.82
2023-05-05T06:24:30.255Z,52.69
2023-05-05T06:25:30.211Z,53.50
2023-05-05T06:26:30.144Z,58.49
2023-05-05T06:27:30.279Z,55.75
2023-05-05T06:28:30.334Z,53.66
2023-05-05T06:29:30.187Z,51.72
2023-05-05T06:30:30.388Z,50.76
2023-05-05T06:31:30.274Z,52.85
2023-05-05T06:32:30.368Z,53.17
2023-05-05T06:33:30.232Z,53.01
2023-05-05T06:35:02.489Z,51.88
2023-05-05T06:35:30.121Z,54.46
2023-05-05T06:36:30.245Z,53.01
2023-05-05T06:37:30.199Z,52.37
2023-05-05T06:38:30.246Z,51.88
2023-05-05T06:39:30.241Z,54.46
2023-05-05T06:40:30.189Z,53.66
2023-05-05T06:41:30.405Z,54.95
2023-05-05T06:42:30.182Z,53.98
2023-05-05T06:43:30.177Z,53.98
2023-05-05T06:44:30.172Z,53.17
2023-05-05T06:45:30.175Z,52.53
2023-05-05T06:46:30.191Z,52.21
2023-05-05T06:47:30.211Z,56.07
2023-05-05T06:48:30.630Z,55.91
2023-05-05T06:49:30.998Z,54.14
2023-05-05T06:50:29.991Z,52.21
2023-05-05T06:51:30.049Z,55.59
2023-05-05T06:52:30.107Z,53.82
2023-05-05T06:53:30.028Z,50.60
2023-05-05T06:54:29.974Z,52.05
2023-05-05T06:55:30.003Z,52.53
2023-05-05T06:56:30.151Z,53.17
2023-05-05T06:57:30.005Z,52.21
2023-05-05T06:58:30.041Z,54.62
2023-05-05T06:59:29.962Z,53.01
2023-05-05T07:00:30.006Z,50.27
2023-05-05T07:01:30.075Z,52.21
2023-05-05T07:02:31.053Z,49.47
2023-05-05T07:03:30.052Z,50.92
2023-05-05T07:04:30.045Z,51.08
2023-05-05T07:05:30.016Z,50.27
2023-05-05T07:06:29.988Z,50.60
2023-05-05T07:07:30.012Z,51.56
2023-05-05T07:08:30.008Z,52.53
2023-05-05T07:09:30.042Z,50.92
2023-05-05T07:10:30.019Z,50.92
2023-05-05T07:11:29.864Z,52.69
2023-05-05T07:12:30.191Z,50.11
2023-05-05T07:13:29.920Z,50.92
2023-05-05T07:14:30.120Z,52.05
2023-05-05T07:15:30.012Z,50.60
2023-05-05T07:16:30.110Z,51.24
2023-05-05T07:17:29.980Z,49.95
2023-05-05T07:18:30.002Z,49.47
2023-05-05T07:19:30.223Z,50.60
2023-05-05T07:20:29.938Z,50.43
2023-05-05T07:21:30.921Z,51.08
2023-05-05T07:22:29.902Z,50.27
2023-05-05T07:23:29.860Z,50.43
2023-05-05T07:24:29.772Z,51.24
2023-05-05T07:25:29.804Z,49.15
2023-05-05T07:26:29.767Z,50.43
2023-05-05T07:27:29.825Z,48.02
2023-05-05T07:28:29.804Z,47.05
2023-05-05T07:29:29.834Z,47.21
2023-05-05T07:30:29.930Z,50.60
2023-05-05T07:31:29.885Z,50.43
2023-05-05T07:32:29.838Z,48.34
2023-05-05T07:33:29.897Z,47.86
2023-05-05T07:34:29.835Z,47.86
2023-05-05T07:35:29.958Z,49.47
2023-05-05T07:36:29.804Z,47.70
2023-05-05T07:37:29.888Z,49.47
2023-05-05T07:38:29.840Z,50.43
2023-05-05T07:39:29.880Z,53.98
2023-05-05T07:40:29.751Z,48.02
2023-05-05T07:41:29.840Z,47.37
2023-05-05T07:42:29.738Z,47.05
2023-05-05T07:43:29.723Z,49.15
2023-05-05T07:44:29.679Z,49.63
2023-05-05T07:45:29.768Z,48.02
2023-05-05T07:46:29.912Z,48.02
2023-05-05T07:47:29.617Z,49.95
2023-05-05T07:48:29.580Z,49.63
2023-05-05T07:49:29.559Z,49.15
2023-05-05T07:50:29.593Z,53.01
2023-05-05T07:51:29.602Z,52.69
2023-05-05T07:52:44.321Z,48.82
2023-05-05T07:53:31.561Z,51.24
2023-05-05T07:54:29.691Z,49.31
2023-05-05T07:55:29.590Z,49.15
2023-05-05T07:56:29.763Z,49.95
2023-05-05T07:57:29.697Z,50.11
2023-05-05T07:58:29.752Z,50.11
2023-05-05T07:59:29.602Z,54.62
2023-05-05T08:00:29.780Z,51.40
2023-05-05T08:01:29.613Z,52.85
2023-05-05T08:02:29.810Z,53.17
2023-05-05T08:03:29.754Z,52.37
2023-05-05T08:04:29.630Z,51.40
2023-05-05T08:05:29.467Z,54.30
2023-05-05T08:06:29.467Z,53.50
2023-05-05T08:07:29.494Z,50.92
2023-05-05T08:08:29.634Z,51.24
2023-05-05T08:09:29.439Z,51.56
2023-05-05T08:10:29.424Z,54.62
2023-05-05T08:11:29.672Z,51.88
2023-05-05T08:12:30.457Z,54.46
2023-05-05T08:13:29.499Z,54.14
2023-05-05T08:14:29.506Z,54.14
2023-05-05T08:15:29.517Z,56.24
2023-05-05T08:16:29.729Z,55.75
2023-05-05T08:17:29.605Z,52.69
2023-05-05T08:18:29.534Z,50.92
2023-05-05T08:19:29.730Z,52.85
2023-05-05T08:20:29.469Z,48.82
2023-05-05T08:21:29.537Z,53.66
2023-05-05T08:22:29.497Z,51.88
2023-05-05T08:23:29.552Z,50.27
2023-05-05T08:24:29.534Z,51.08
2023-05-05T08:25:29.553Z,51.56
2023-05-05T08:26:29.432Z,53.50
2023-05-05T08:27:29.532Z,49.79
2023-05-05T08:28:29.434Z,48.98
2023-05-05T08:29:29.447Z,50.92
2023-05-05T08:30:29.400Z,50.92
2023-05-05T08:31:29.435Z,52.21
2023-05-05T08:32:29.922Z,52.69
2023-05-05T08:33:30.398Z,49.31
2023-05-05T08:34:29.404Z,51.24
2023-05-05T08:35:29.345Z,52.37
2023-05-05T08:36:29.249Z,51.72
2023-05-05T08:37:29.256Z,53.01
2023-05-05T08:38:29.250Z,54.46
2023-05-05T08:39:29.208Z,54.62
2023-05-05T08:40:29.266Z,53.50
2023-05-05T08:41:29.209Z,51.24
2023-05-05T08:42:38.089Z,52.21
2023-05-05T08:43:42.262Z,51.72
2023-05-05T08:44:29.232Z,49.79
2023-05-05T08:45:29.164Z,51.40
2023-05-05T08:46:29.458Z,50.60
2023-05-05T08:47:29.243Z,48.50
2023-05-05T08:48:29.408Z,49.63
2023-05-05T08:49:29.266Z,51.08
2023-05-05T08:50:29.339Z,49.79
2023-05-05T08:51:29.492Z,51.72
2023-05-05T08:52:29.275Z,52.05
2023-05-05T08:53:29.214Z,52.37
2023-05-05T08:54:29.212Z,48.82
2023-05-05T08:55:29.213Z,51.56
2023-05-05T08:56:29.214Z,49.95
2023-05-05T08:57:29.302Z,52.05
2023-05-05T08:58:29.216Z,46.89
2023-05-05T08:59:30.202Z,44.96
2023-05-05T09:00:29.221Z,43.34
2023-05-05T09:01:29.279Z,48.34
2023-05-05T09:02:29.266Z,47.86
2023-05-05T09:03:29.081Z,49.79
2023-05-05T09:04:29.056Z,48.50
2023-05-05T09:05:29.212Z,44.96
2023-05-05T09:06:29.130Z,46.73
2023-05-05T09:07:29.250Z,48.18
2023-05-05T09:08:29.286Z,47.70
2023-05-05T09:09:29.178Z,47.37
2023-05-05T09:10:29.082Z,46.73
2023-05-05T09:11:29.131Z,48.02
2023-05-05T09:12:28.979Z,47.21
2023-05-05T09:13:29.137Z,44.79
2023-05-05T09:14:29.076Z,47.21
2023-05-05T09:15:29.052Z,46.41
2023-05-05T09:16:29.144Z,46.25
2023-05-05T09:17:29.076Z,47.53
2023-05-05T09:18:29.077Z,49.47
2023-05-05T09:19:29.034Z,51.24
2023-05-05T09:20:29.166Z,46.08
2023-05-05T09:21:29.024Z,48.02
2023-05-05T09:22:29.034Z,47.05
2023-05-05T09:23:29.009Z,48.02
2023-05-05T09:24:29.195Z,45.76
2023-05-05T09:25:28.971Z,49.79
2023-05-05T09:26:29.058Z,48.34
2023-05-05T09:27:28.972Z,51.72
2023-05-05T09:28:29.110Z,44.47
2023-05-05T09:29:28.970Z,47.37
2023-05-05T09:30:29.122Z,46.89
2023-05-05T09:31:28.897Z,47.37
2023-05-05T09:32:30.587Z,49.15
2023-05-05T09:33:29.861Z,46.08
2023-05-05T09:34:28.828Z,45.12
2023-05-05T09:35:28.915Z,46.57
2023-05-05T09:36:28.972Z,45.44
2023-05-05T09:37:28.890Z,47.05
2023-05-05T09:38:28.937Z,47.21
2023-05-05T09:39:28.910Z,49.47
2023-05-05T09:40:28.886Z,46.41
2023-05-05T09:41:28.964Z,51.72
2023-05-05T09:42:28.897Z,51.56
2023-05-05T09:43:28.866Z,49.63
2023-05-05T09:44:28.899Z,50.43
2023-05-05T09:45:28.959Z,48.98
2023-05-05T09:46:28.959Z,49.47
2023-05-05T09:47:30.157Z,50.92
2023-05-05T09:48:29.868Z,51.08
2023-05-05T09:49:28.883Z,49.63
2023-05-05T09:50:29.925Z,50.92
2023-05-05T09:51:28.909Z,50.27
2023-05-05T09:52:29.155Z,49.15
2023-05-05T09:53:29.078Z,50.11
2023-05-05T09:54:28.830Z,50.43
2023-05-05T09:55:28.805Z,49.31
2023-05-05T09:56:28.818Z,50.43
2023-05-05T09:57:28.715Z,49.95
2023-05-05T09:58:28.739Z,50.43
2023-05-05T09:59:28.660Z,48.02
2023-05-05T10:00:28.656Z,48.50
2023-05-05T10:01:28.664Z,49.31
2023-05-05T10:03:01.748Z,49.15
2023-05-05T10:04:00.569Z,51.24
2023-05-05T10:04:28.850Z,50.11
2023-05-05T10:06:00.653Z,50.43
2023-05-05T10:06:28.622Z,52.37
2023-05-05T10:07:28.697Z,49.95
2023-05-05T10:08:28.819Z,49.95
2023-05-05T10:09:28.700Z,47.37
2023-05-05T10:10:29.099Z,49.47
2023-05-05T10:11:29.707Z,47.05
2023-05-05T10:12:28.749Z,44.15
2023-05-05T10:13:28.739Z,47.05
2023-05-05T10:14:28.723Z,47.05
2023-05-05T10:15:28.681Z,46.41
2023-05-05T10:16:29.796Z,44.15
2023-05-05T10:17:28.748Z,46.89
2023-05-05T10:18:28.772Z,45.12
2023-05-05T10:19:28.702Z,47.21
2023-05-05T10:20:28.649Z,46.89
2023-05-05T10:21:28.635Z,46.41
2023-05-05T10:22:28.589Z,47.70
2023-05-05T10:23:28.605Z,48.34
2023-05-05T10:24:28.711Z,48.34
2023-05-05T10:25:28.548Z,47.86
2023-05-05T10:26:28.472Z,45.28
2023-05-05T10:27:28.521Z,49.63
2023-05-05T10:28:28.477Z,45.44
2023-05-05T10:29:28.378Z,47.21
2023-05-05T10:30:28.478Z,47.53
2023-05-05T10:31:28.452Z,49.31
2023-05-05T10:32:51.974Z,49.15
2023-05-05T10:33:31.947Z,50.60
2023-05-05T10:34:29.574Z,48.66
2023-05-05T10:35:28.507Z,49.63
2023-05-05T10:36:28.533Z,49.63
2023-05-05T10:37:28.589Z,47.86
2023-05-05T10:38:28.483Z,47.86
2023-05-05T10:39:28.503Z,48.18
2023-05-05T10:40:28.618Z,49.95
2023-05-05T10:41:28.514Z,48.82
2023-05-05T10:42:28.482Z,47.21
2023-05-05T10:43:28.447Z,48.50
2023-05-05T10:44:28.438Z,48.34
2023-05-05T10:45:28.476Z,46.57
2023-05-05T10:46:28.815Z,49.47
2023-05-05T10:47:28.653Z,48.50
2023-05-05T10:48:28.461Z,48.18
2023-05-05T10:49:28.670Z,48.82
2023-05-05T10:50:28.381Z,51.56
2023-05-05T10:51:39.239Z,48.02
2023-05-05T10:52:30.845Z,45.60
2023-05-05T10:53:28.335Z,49.47
2023-05-05T10:54:28.357Z,52.05
2023-05-05T10:55:28.334Z,53.82
2023-05-05T10:56:28.460Z,52.53
2023-05-05T10:57:28.321Z,47.86
2023-05-05T10:58:28.508Z,48.50
2023-05-05T10:59:28.407Z,46.89
2023-05-05T11:00:28.467Z,45.92
2023-05-05T11:01:28.420Z,48.18
2023-05-05T11:02:28.501Z,48.82
2023-05-05T11:03:28.520Z,49.95
2023-05-05T11:04:28.400Z,49.15
2023-05-05T11:05:28.313Z,47.53
2023-05-05T11:06:28.330Z,49.15
2023-05-05T11:07:28.328Z,48.18
2023-05-05T11:08:28.249Z,48.18
2023-05-05T11:09:28.547Z,47.21
2023-05-05T11:10:28.271Z,48.18
2023-05-05T11:11:28.244Z,48.66
2023-05-05T11:12:28.314Z,48.98
2023-05-05T11:13:28.563Z,50.27
2023-05-05T11:14:28.559Z,47.21
2023-05-05T11:15:28.314Z,49.47
2023-05-05T11:16:28.226Z,49.15
2023-05-05T11:17:28.300Z,48.66
2023-05-05T11:18:28.699Z,48.18
2023-05-05T11:19:28.327Z,51.08
2023-05-05T11:20:28.646Z,49.95
2023-05-05T11:21:28.347Z,49.79
2023-05-05T11:22:28.217Z,47.70
2023-05-05T11:23:28.372Z,49.47
2023-05-05T11:24:28.125Z,50.43
2023-05-05T11:25:28.195Z,50.43
2023-05-05T11:26:28.221Z,49.47
2023-05-05T11:27:28.103Z,51.24
2023-05-05T11:28:28.136Z,49.31
2023-05-05T11:29:28.178Z,48.18
2023-05-05T11:30:28.163Z,53.17
2023-05-05T11:31:28.799Z,52.05
2023-05-05T11:32:28.278Z,52.21
2023-05-05T11:33:28.489Z,50.11
2023-05-05T11:34:28.233Z,53.01
2023-05-05T11:35:28.205Z,49.95
2023-05-05T11:36:28.175Z,49.63
2023-05-05T11:37:28.065Z,52.85
2023-05-05T11:38:28.131Z,52.37
2023-05-05T11:39:28.042Z,51.40
2023-05-05T11:40:27.961Z,51.72
2023-05-05T11:41:28.067Z,52.21
2023-05-05T11:42:28.216Z,50.43
2023-05-05T11:43:27.954Z,49.79
2023-05-05T11:44:27.966Z,50.27
2023-05-05T11:45:27.856Z,50.43
2023-05-05T11:46:28.140Z,54.79
2023-05-05T11:47:28.008Z,55.27
2023-05-05T11:48:27.973Z,55.11
2023-05-05T11:49:28.060Z,56.40
2023-05-05T11:50:27.970Z,57.69
2023-05-05T11:51:27.930Z,57.20
2023-05-05T11:52:28.055Z,60.42
2023-05-05T11:53:27.920Z,59.30
2023-05-05T11:54:27.932Z,59.78
2023-05-05T11:55:27.858Z,60.75
2023-05-05T11:56:27.942Z,58.97
2023-05-05T11:57:27.986Z,57.20
2023-05-05T11:58:28.489Z,57.85
2023-05-05T11:59:27.949Z,58.65
2023-05-05T12:00:27.945Z,61.55
2023-05-05T12:01:27.999Z,58.97
2023-05-05T12:02:28.009Z,58.65
2023-05-05T12:03:28.571Z,57.52
2023-05-05T12:04:28.001Z,57.04
2023-05-05T12:05:27.912Z,57.69
2023-05-05T12:06:28.052Z,58.81
2023-05-05T12:07:27.712Z,58.81
2023-05-05T12:08:27.740Z,58.17
2023-05-05T12:09:27.789Z,57.85
2023-05-05T12:10:27.724Z,57.20
2023-05-05T12:11:27.974Z,56.24
2023-05-05T12:12:27.728Z,58.17
2023-05-05T12:13:27.703Z,58.49
2023-05-05T12:14:27.714Z,59.62
2023-05-05T12:15:27.729Z,63.16
2023-05-05T12:16:27.922Z,61.23
2023-05-05T12:17:27.820Z,61.87
2023-05-05T12:18:27.870Z,64.94
2023-05-05T12:19:27.805Z,62.84
2023-05-05T12:20:27.714Z,63.33
2023-05-05T12:21:27.933Z,63.97
2023-05-05T12:22:27.961Z,61.55
2023-05-05T12:23:27.884Z,61.71
2023-05-05T12:24:27.997Z,60.75
2023-05-05T12:25:27.721Z,73.48
2023-05-05T12:26:28.199Z,71.54
2023-05-05T12:27:28.798Z,74.12
2023-05-05T12:28:28.004Z,72.03
2023-05-05T12:29:28.173Z,72.67
2023-05-05T12:30:27.875Z,73.32
2023-05-05T12:31:27.972Z,70.58
2023-05-05T12:32:27.796Z,68.32
2023-05-05T12:33:27.610Z,71.06
2023-05-05T12:34:27.810Z,64.78
2023-05-05T12:35:28.051Z,62.52
2023-05-05T12:36:29.857Z,62.20
2023-05-05T12:37:27.684Z,58.81
2023-05-05T12:38:28.110Z,59.46
2023-05-05T12:39:27.634Z,61.23
2023-05-05T12:40:27.796Z,62.04
2023-05-05T12:41:27.644Z,60.59
2023-05-05T12:42:27.668Z,58.97
2023-05-05T12:43:27.709Z,59.94
2023-05-05T12:44:27.902Z,60.26
2023-05-05T12:45:27.643Z,60.91
2023-05-05T12:46:27.682Z,57.20
2023-05-05T12:47:28.229Z,59.94
2023-05-05T12:48:27.571Z,58.49
2023-05-05T12:49:27.435Z,58.49
2023-05-05T12:50:27.425Z,59.46
2023-05-05T12:51:27.465Z,60.10
2023-05-05T12:52:27.402Z,60.75
2023-05-05T12:53:27.393Z,60.10
2023-05-05T12:54:27.472Z,57.85